sensor_id;sensor_type;location;lat;lon;timestamp;temperature;humidity
39189;DHT22;24915;50.858;4.376;2022-07-10T00:00:17;17.30;96.10
39189;DHT22;24915;50.858;4.376;2022-07-10T00:02:46;17.30;96.10
39189;DHT22;24915;50.858;4.376;2022-07-10T00:05:11;17.30;95.90
39189;DHT22;24915;50.858;4.376;2022-07-10T00:07:37;17.30;96.10
39189;DHT22;24915;50.858;4.376;2022-07-10T00:10:04;17.30;96.00
39189;DHT22;24915;50.858;4.376;2022-07-10T00:12:30;17.30;96.10
39189;DHT22;24915;50.858;4.376;2022-07-10T00:14:55;17.30;96.20
39189;DHT22;24915;50.858;4.376;2022-07-10T00:17:21;17.30;96.20
39189;DHT22;24915;50.858;4.376;2022-07-10T00:19:47;17.30;96.20
39189;DHT22;24915;50.858;4.376;2022-07-10T00:22:12;17.30;96.40
39189;DHT22;24915;50.858;4.376;2022-07-10T00:24:38;17.30;96.40
39189;DHT22;24915;50.858;4.376;2022-07-10T00:27:04;17.30;96.40
39189;DHT22;24915;50.858;4.376;2022-07-10T00:29:30;17.20;96.40
39189;DHT22;24915;50.858;4.376;2022-07-10T00:31:55;17.20;96.40
39189;DHT22;24915;50.858;4.376;2022-07-10T00:34:21;17.20;96.50
39189;DHT22;24915;50.858;4.376;2022-07-10T00:36:47;17.10;96.50
39189;DHT22;24915;50.858;4.376;2022-07-10T00:39:12;17.10;96.60
39189;DHT22;24915;50.858;4.376;2022-07-10T00:41:38;17.10;96.80
39189;DHT22;24915;50.858;4.376;2022-07-10T00:44:04;17.00;96.50
39189;DHT22;24915;50.858;4.376;2022-07-10T00:46:31;17.00;96.70
39189;DHT22;24915;50.858;4.376;2022-07-10T00:48:57;17.10;96.70
39189;DHT22;24915;50.858;4.376;2022-07-10T00:51:28;17.00;96.70
39189;DHT22;24915;50.858;4.376;2022-07-10T00:53:54;17.10;96.80
39189;DHT22;24915;50.858;4.376;2022-07-10T00:56:23;17.10;96.60
39189;DHT22;24915;50.858;4.376;2022-07-10T00:58:50;17.10;96.60
39189;DHT22;24915;50.858;4.376;2022-07-10T01:01:16;17.10;96.60
39189;DHT22;24915;50.858;4.376;2022-07-10T01:03:42;17.00;96.80
39189;DHT22;24915;50.858;4.376;2022-07-10T01:06:09;17.00;96.90
39189;DHT22;24915;50.858;4.376;2022-07-10T01:08:35;16.90;96.80
39189;DHT22;24915;50.858;4.376;2022-07-10T01:11:01;16.90;96.90
39189;DHT22;24915;50.858;4.376;2022-07-10T01:13:27;16.90;96.90
39189;DHT22;24915;50.858;4.376;2022-07-10T01:15:53;16.90;97.00
39189;DHT22;24915;50.858;4.376;2022-07-10T01:18:19;16.80;97.10
39189;DHT22;24915;50.858;4.376;2022-07-10T01:20:45;16.80;97.10
39189;DHT22;24915;50.858;4.376;2022-07-10T01:23:10;16.70;97.10
39189;DHT22;24915;50.858;4.376;2022-07-10T01:25:37;16.70;97.20
39189;DHT22;24915;50.858;4.376;2022-07-10T01:28:03;16.70;97.30
39189;DHT22;24915;50.858;4.376;2022-07-10T01:30:28;16.60;97.40
39189;DHT22;24915;50.858;4.376;2022-07-10T01:32:54;16.70;97.60
39189;DHT22;24915;50.858;4.376;2022-07-10T01:35:20;16.60;97.50
39189;DHT22;24915;50.858;4.376;2022-07-10T01:37:46;16.60;97.40
39189;DHT22;24915;50.858;4.376;2022-07-10T01:40:12;16.70;97.50
39189;DHT22;24915;50.858;4.376;2022-07-10T01:42:38;16.70;97.50
39189;DHT22;24915;50.858;4.376;2022-07-10T01:45:08;16.70;97.50
39189;DHT22;24915;50.858;4.376;2022-07-10T01:47:35;16.70;97.50
39189;DHT22;24915;50.858;4.376;2022-07-10T01:50:00;16.60;97.50
39189;DHT22;24915;50.858;4.376;2022-07-10T01:52:26;16.60;97.60
39189;DHT22;24915;50.858;4.376;2022-07-10T01:54:52;16.60;97.60
39189;DHT22;24915;50.858;4.376;2022-07-10T01:57:18;16.60;97.50
39189;DHT22;24915;50.858;4.376;2022-07-10T01:59:44;16.60;97.80
39189;DHT22;24915;50.858;4.376;2022-07-10T02:02:10;16.60;97.70
39189;DHT22;24915;50.858;4.376;2022-07-10T02:04:36;16.60;97.50
39189;DHT22;24915;50.858;4.376;2022-07-10T02:09:34;16.60;97.80
39189;DHT22;24915;50.858;4.376;2022-07-10T02:11:59;16.50;97.70
39189;DHT22;24915;50.858;4.376;2022-07-10T02:14:25;16.50;97.90
39189;DHT22;24915;50.858;4.376;2022-07-10T02:16:50;16.40;98.00
39189;DHT22;24915;50.858;4.376;2022-07-10T02:19:16;16.40;98.10
39189;DHT22;24915;50.858;4.376;2022-07-10T02:21:42;16.40;98.10
39189;DHT22;24915;50.858;4.376;2022-07-10T02:24:08;16.40;98.20
39189;DHT22;24915;50.858;4.376;2022-07-10T02:26:34;16.40;98.10
39189;DHT22;24915;50.858;4.376;2022-07-10T02:29:00;16.40;98.10
39189;DHT22;24915;50.858;4.376;2022-07-10T02:31:25;16.40;98.20
39189;DHT22;24915;50.858;4.376;2022-07-10T02:33:51;16.40;98.20
39189;DHT22;24915;50.858;4.376;2022-07-10T02:36:17;16.40;98.30
39189;DHT22;24915;50.858;4.376;2022-07-10T02:38:42;16.30;98.40
39189;DHT22;24915;50.858;4.376;2022-07-10T02:41:08;16.30;98.40
39189;DHT22;24915;50.858;4.376;2022-07-10T02:43:34;16.30;98.40
39189;DHT22;24915;50.858;4.376;2022-07-10T02:45:59;16.30;98.50
39189;DHT22;24915;50.858;4.376;2022-07-10T02:48:25;16.40;98.60
39189;DHT22;24915;50.858;4.376;2022-07-10T02:50:51;16.40;98.40
39189;DHT22;24915;50.858;4.376;2022-07-10T02:53:17;16.40;98.40
39189;DHT22;24915;50.858;4.376;2022-07-10T02:55:43;16.40;98.50
39189;DHT22;24915;50.858;4.376;2022-07-10T02:58:10;16.40;98.50
39189;DHT22;24915;50.858;4.376;2022-07-10T03:00:36;16.40;98.50
39189;DHT22;24915;50.858;4.376;2022-07-10T03:03:02;16.40;98.50
39189;DHT22;24915;50.858;4.376;2022-07-10T03:05:28;16.40;98.40
39189;DHT22;24915;50.858;4.376;2022-07-10T03:07:54;16.30;98.30
39189;DHT22;24915;50.858;4.376;2022-07-10T03:10:20;16.30;98.50
39189;DHT22;24915;50.858;4.376;2022-07-10T03:12:46;16.30;98.50
39189;DHT22;24915;50.858;4.376;2022-07-10T03:15:13;16.30;98.50
39189;DHT22;24915;50.858;4.376;2022-07-10T03:17:39;16.30;98.50
39189;DHT22;24915;50.858;4.376;2022-07-10T03:20:06;16.30;98.50
39189;DHT22;24915;50.858;4.376;2022-07-10T03:22:32;16.20;98.50
39189;DHT22;24915;50.858;4.376;2022-07-10T03:24:58;16.20;98.70
39189;DHT22;24915;50.858;4.376;2022-07-10T03:27:24;16.10;98.80
39189;DHT22;24915;50.858;4.376;2022-07-10T03:29:50;16.10;98.90
39189;DHT22;24915;50.858;4.376;2022-07-10T03:32:16;16.10;99.00
39189;DHT22;24915;50.858;4.376;2022-07-10T03:34:41;16.10;98.80
39189;DHT22;24915;50.858;4.376;2022-07-10T03:37:07;16.10;99.00
39189;DHT22;24915;50.858;4.376;2022-07-10T03:39:33;16.10;99.30
39189;DHT22;24915;50.858;4.376;2022-07-10T03:41:59;16.10;99.00
39189;DHT22;24915;50.858;4.376;2022-07-10T03:44:25;16.10;99.20
39189;DHT22;24915;50.858;4.376;2022-07-10T03:46:50;16.10;99.30
39189;DHT22;24915;50.858;4.376;2022-07-10T03:49:16;16.10;99.20
39189;DHT22;24915;50.858;4.376;2022-07-10T03:51:42;16.10;99.30
39189;DHT22;24915;50.858;4.376;2022-07-10T03:54:08;16.10;99.20
39189;DHT22;24915;50.858;4.376;2022-07-10T03:56:33;16.10;99.20
39189;DHT22;24915;50.858;4.376;2022-07-10T03:59:17;16.10;99.30
39189;DHT22;24915;50.858;4.376;2022-07-10T04:01:43;16.10;99.50
39189;DHT22;24915;50.858;4.376;2022-07-10T04:04:09;16.10;99.50
39189;DHT22;24915;50.858;4.376;2022-07-10T04:06:35;16.10;99.60
39189;DHT22;24915;50.858;4.376;2022-07-10T04:09:07;16.10;99.50
39189;DHT22;24915;50.858;4.376;2022-07-10T04:11:32;16.10;99.70
39189;DHT22;24915;50.858;4.376;2022-07-10T04:13:58;16.10;99.70
39189;DHT22;24915;50.858;4.376;2022-07-10T04:16:24;16.20;99.60
39189;DHT22;24915;50.858;4.376;2022-07-10T04:18:49;16.20;99.60
39189;DHT22;24915;50.858;4.376;2022-07-10T04:21:15;16.20;99.80
39189;DHT22;24915;50.858;4.376;2022-07-10T04:23:41;16.20;99.90
39189;DHT22;24915;50.858;4.376;2022-07-10T04:26:06;16.20;99.90
39189;DHT22;24915;50.858;4.376;2022-07-10T04:28:32;16.30;99.80
39189;DHT22;24915;50.858;4.376;2022-07-10T04:30:58;16.30;99.70
39189;DHT22;24915;50.858;4.376;2022-07-10T04:33:25;16.30;99.90
39189;DHT22;24915;50.858;4.376;2022-07-10T04:35:50;16.40;99.70
39189;DHT22;24915;50.858;4.376;2022-07-10T04:38:16;16.40;99.70
39189;DHT22;24915;50.858;4.376;2022-07-10T04:40:42;16.50;99.80
39189;DHT22;24915;50.858;4.376;2022-07-10T04:43:08;16.50;99.70
39189;DHT22;24915;50.858;4.376;2022-07-10T04:45:35;16.50;99.50
39189;DHT22;24915;50.858;4.376;2022-07-10T04:48:04;16.60;99.50
39189;DHT22;24915;50.858;4.376;2022-07-10T04:50:30;16.60;99.30
39189;DHT22;24915;50.858;4.376;2022-07-10T04:52:56;16.70;99.30
39189;DHT22;24915;50.858;4.376;2022-07-10T04:55:22;16.80;99.50
39189;DHT22;24915;50.858;4.376;2022-07-10T04:57:48;16.80;99.30
39189;DHT22;24915;50.858;4.376;2022-07-10T05:00:14;16.80;99.20
39189;DHT22;24915;50.858;4.376;2022-07-10T05:02:40;16.90;99.10
39189;DHT22;24915;50.858;4.376;2022-07-10T05:05:06;17.00;98.90
39189;DHT22;24915;50.858;4.376;2022-07-10T05:07:32;17.10;99.10
39189;DHT22;24915;50.858;4.376;2022-07-10T05:09:57;17.20;98.50
39189;DHT22;24915;50.858;4.376;2022-07-10T05:12:23;17.20;98.60
39189;DHT22;24915;50.858;4.376;2022-07-10T05:14:48;17.30;98.60
39189;DHT22;24915;50.858;4.376;2022-07-10T05:17:14;17.30;98.40
39189;DHT22;24915;50.858;4.376;2022-07-10T05:19:40;17.30;98.20
39189;DHT22;24915;50.858;4.376;2022-07-10T05:22:05;17.40;98.20
39189;DHT22;24915;50.858;4.376;2022-07-10T05:24:31;17.50;98.00
39189;DHT22;24915;50.858;4.376;2022-07-10T05:26:57;17.60;97.90
39189;DHT22;24915;50.858;4.376;2022-07-10T05:29:23;17.70;98.00
39189;DHT22;24915;50.858;4.376;2022-07-10T05:31:48;17.80;97.80
39189;DHT22;24915;50.858;4.376;2022-07-10T05:34:14;17.80;97.50
39189;DHT22;24915;50.858;4.376;2022-07-10T05:36:40;17.90;97.50
39189;DHT22;24915;50.858;4.376;2022-07-10T05:39:05;18.00;97.40
39189;DHT22;24915;50.858;4.376;2022-07-10T05:41:31;18.10;97.40
39189;DHT22;24915;50.858;4.376;2022-07-10T05:43:59;18.20;97.30
39189;DHT22;24915;50.858;4.376;2022-07-10T05:46:25;18.30;97.30
39189;DHT22;24915;50.858;4.376;2022-07-10T05:48:51;18.30;97.10
39189;DHT22;24915;50.858;4.376;2022-07-10T05:51:16;18.40;97.10
39189;DHT22;24915;50.858;4.376;2022-07-10T05:53:42;18.50;97.00
39189;DHT22;24915;50.858;4.376;2022-07-10T05:56:08;18.70;96.90
39189;DHT22;24915;50.858;4.376;2022-07-10T05:58:33;18.70;96.70
39189;DHT22;24915;50.858;4.376;2022-07-10T06:00:59;18.60;96.80
39189;DHT22;24915;50.858;4.376;2022-07-10T06:03:25;18.50;96.80
39189;DHT22;24915;50.858;4.376;2022-07-10T06:05:51;18.50;97.00
39189;DHT22;24915;50.858;4.376;2022-07-10T06:08:17;18.50;97.20
39189;DHT22;24915;50.858;4.376;2022-07-10T06:10:43;18.50;97.30
39189;DHT22;24915;50.858;4.376;2022-07-10T06:13:13;18.40;97.50
39189;DHT22;24915;50.858;4.376;2022-07-10T06:15:38;18.40;97.60
39189;DHT22;24915;50.858;4.376;2022-07-10T06:18:04;18.40;97.50
39189;DHT22;24915;50.858;4.376;2022-07-10T06:20:30;18.40;97.70
39189;DHT22;24915;50.858;4.376;2022-07-10T06:22:57;18.50;97.60
39189;DHT22;24915;50.858;4.376;2022-07-10T06:25:22;18.50;97.60
39189;DHT22;24915;50.858;4.376;2022-07-10T06:27:48;18.50;97.70
39189;DHT22;24915;50.858;4.376;2022-07-10T06:30:14;18.50;97.70
39189;DHT22;24915;50.858;4.376;2022-07-10T06:32:40;18.50;97.70
39189;DHT22;24915;50.858;4.376;2022-07-10T06:35:07;18.60;97.80
39189;DHT22;24915;50.858;4.376;2022-07-10T06:37:33;18.60;97.80
39189;DHT22;24915;50.858;4.376;2022-07-10T06:39:59;18.60;97.60
39189;DHT22;24915;50.858;4.376;2022-07-10T06:42:25;18.60;97.60
39189;DHT22;24915;50.858;4.376;2022-07-10T06:44:50;18.60;98.10
39189;DHT22;24915;50.858;4.376;2022-07-10T06:47:18;18.70;98.20
39189;DHT22;24915;50.858;4.376;2022-07-10T06:50:06;18.80;97.80
39189;DHT22;24915;50.858;4.376;2022-07-10T06:52:33;18.80;97.60
39189;DHT22;24915;50.858;4.376;2022-07-10T06:55:00;18.80;97.90
39189;DHT22;24915;50.858;4.376;2022-07-10T06:57:25;18.90;97.70
39189;DHT22;24915;50.858;4.376;2022-07-10T06:59:51;18.90;97.60
39189;DHT22;24915;50.858;4.376;2022-07-10T07:02:18;19.00;97.40
39189;DHT22;24915;50.858;4.376;2022-07-10T07:04:45;19.00;97.10
39189;DHT22;24915;50.858;4.376;2022-07-10T07:07:12;19.10;97.30
39189;DHT22;24915;50.858;4.376;2022-07-10T07:09:38;19.10;97.10
39189;DHT22;24915;50.858;4.376;2022-07-10T07:12:05;19.20;97.40
39189;DHT22;24915;50.858;4.376;2022-07-10T07:14:30;19.20;97.30
39189;DHT22;24915;50.858;4.376;2022-07-10T07:16:56;19.30;97.20
39189;DHT22;24915;50.858;4.376;2022-07-10T07:19:36;19.40;97.00
39189;DHT22;24915;50.858;4.376;2022-07-10T07:22:23;19.40;96.90
39189;DHT22;24915;50.858;4.376;2022-07-10T07:25:09;19.50;96.70
39189;DHT22;24915;50.858;4.376;2022-07-10T07:27:36;19.50;96.60
39189;DHT22;24915;50.858;4.376;2022-07-10T07:30:14;19.50;96.70
39189;DHT22;24915;50.858;4.376;2022-07-10T07:32:41;19.60;96.90
39189;DHT22;24915;50.858;4.376;2022-07-10T07:35:08;19.70;97.00
39189;DHT22;24915;50.858;4.376;2022-07-10T07:37:45;19.80;96.50
39189;DHT22;24915;50.858;4.376;2022-07-10T07:40:13;19.90;96.50
39189;DHT22;24915;50.858;4.376;2022-07-10T07:42:39;20.00;96.30
39189;DHT22;24915;50.858;4.376;2022-07-10T07:45:06;20.10;96.10
39189;DHT22;24915;50.858;4.376;2022-07-10T07:50:12;20.40;96.00
39189;DHT22;24915;50.858;4.376;2022-07-10T07:52:38;20.60;95.70
39189;DHT22;24915;50.858;4.376;2022-07-10T07:55:04;20.80;95.10
39189;DHT22;24915;50.858;4.376;2022-07-10T07:57:30;20.90;95.10
39189;DHT22;24915;50.858;4.376;2022-07-10T07:59:55;21.00;94.70
39189;DHT22;24915;50.858;4.376;2022-07-10T08:02:21;21.10;94.50
39189;DHT22;24915;50.858;4.376;2022-07-10T08:04:47;21.30;94.20
39189;DHT22;24915;50.858;4.376;2022-07-10T08:07:13;21.30;94.30
39189;DHT22;24915;50.858;4.376;2022-07-10T08:09:39;21.40;93.90
39189;DHT22;24915;50.858;4.376;2022-07-10T08:12:05;21.50;94.10
39189;DHT22;24915;50.858;4.376;2022-07-10T08:14:31;21.60;93.90
39189;DHT22;24915;50.858;4.376;2022-07-10T08:16:57;21.70;94.00
39189;DHT22;24915;50.858;4.376;2022-07-10T08:19:22;21.90;93.50
39189;DHT22;24915;50.858;4.376;2022-07-10T08:21:48;21.90;93.40
39189;DHT22;24915;50.858;4.376;2022-07-10T08:24:13;22.00;93.30
39189;DHT22;24915;50.858;4.376;2022-07-10T08:26:40;22.10;93.70
39189;DHT22;24915;50.858;4.376;2022-07-10T08:29:06;22.30;92.80
39189;DHT22;24915;50.858;4.376;2022-07-10T08:31:32;22.40;92.40
39189;DHT22;24915;50.858;4.376;2022-07-10T08:33:59;22.40;92.10
39189;DHT22;24915;50.858;4.376;2022-07-10T08:36:25;22.50;92.30
39189;DHT22;24915;50.858;4.376;2022-07-10T08:38:52;22.70;92.10
39189;DHT22;24915;50.858;4.376;2022-07-10T08:41:23;22.70;91.70
39189;DHT22;24915;50.858;4.376;2022-07-10T08:43:50;22.80;91.80
39189;DHT22;24915;50.858;4.376;2022-07-10T08:46:17;23.00;91.90
39189;DHT22;24915;50.858;4.376;2022-07-10T08:48:47;23.20;91.50
39189;DHT22;24915;50.858;4.376;2022-07-10T08:51:18;23.40;91.30
39189;DHT22;24915;50.858;4.376;2022-07-10T08:53:46;23.40;90.70
39189;DHT22;24915;50.858;4.376;2022-07-10T08:56:12;23.50;90.70
39189;DHT22;24915;50.858;4.376;2022-07-10T08:58:38;23.50;90.50
39189;DHT22;24915;50.858;4.376;2022-07-10T09:01:03;23.60;90.40
39189;DHT22;24915;50.858;4.376;2022-07-10T09:03:29;23.70;90.20
39189;DHT22;24915;50.858;4.376;2022-07-10T09:05:56;23.80;90.30
39189;DHT22;24915;50.858;4.376;2022-07-10T09:08:27;23.90;89.40
39189;DHT22;24915;50.858;4.376;2022-07-10T09:11:18;24.00;89.60
39189;DHT22;24915;50.858;4.376;2022-07-10T09:13:58;24.00;88.60
39189;DHT22;24915;50.858;4.376;2022-07-10T09:16:26;24.10;87.90
39189;DHT22;24915;50.858;4.376;2022-07-10T09:18:53;24.00;87.40
39189;DHT22;24915;50.858;4.376;2022-07-10T09:21:19;23.90;87.70
39189;DHT22;24915;50.858;4.376;2022-07-10T09:23:45;23.80;88.60
39189;DHT22;24915;50.858;4.376;2022-07-10T09:26:11;23.90;88.40
39189;DHT22;24915;50.858;4.376;2022-07-10T09:28:37;24.00;88.60
39189;DHT22;24915;50.858;4.376;2022-07-10T09:31:03;24.10;87.50
39189;DHT22;24915;50.858;4.376;2022-07-10T09:33:30;24.10;87.20
39189;DHT22;24915;50.858;4.376;2022-07-10T09:41:26;24.50;87.00
39189;DHT22;24915;50.858;4.376;2022-07-10T09:43:54;24.50;86.80
39189;DHT22;24915;50.858;4.376;2022-07-10T09:46:23;24.50;86.50
39189;DHT22;24915;50.858;4.376;2022-07-10T09:49:01;24.50;86.60
39189;DHT22;24915;50.858;4.376;2022-07-10T09:51:36;24.70;86.30
39189;DHT22;24915;50.858;4.376;2022-07-10T09:54:04;24.80;86.20
39189;DHT22;24915;50.858;4.376;2022-07-10T09:56:33;25.00;85.50
39189;DHT22;24915;50.858;4.376;2022-07-10T09:59:00;25.10;85.00
39189;DHT22;24915;50.858;4.376;2022-07-10T10:01:27;25.00;85.10
39189;DHT22;24915;50.858;4.376;2022-07-10T10:03:58;24.90;85.20
39189;DHT22;24915;50.858;4.376;2022-07-10T10:06:27;24.90;85.10
39189;DHT22;24915;50.858;4.376;2022-07-10T10:11:49;24.80;84.60
39189;DHT22;24915;50.858;4.376;2022-07-10T10:14:19;24.60;85.10
39189;DHT22;24915;50.858;4.376;2022-07-10T10:16:46;24.40;85.90
39189;DHT22;24915;50.858;4.376;2022-07-10T10:19:14;24.30;87.20
39189;DHT22;24915;50.858;4.376;2022-07-10T10:21:59;24.40;87.30
39189;DHT22;24915;50.858;4.376;2022-07-10T10:24:26;24.40;86.60
39189;DHT22;24915;50.858;4.376;2022-07-10T10:26:52;24.40;86.50
39189;DHT22;24915;50.858;4.376;2022-07-10T10:29:19;24.30;86.60
39189;DHT22;24915;50.858;4.376;2022-07-10T10:31:46;24.20;86.40
39189;DHT22;24915;50.858;4.376;2022-07-10T10:34:12;24.10;87.70
39189;DHT22;24915;50.858;4.376;2022-07-10T10:39:13;24.20;87.60
39189;DHT22;24915;50.858;4.376;2022-07-10T10:41:41;24.30;87.80
39189;DHT22;24915;50.858;4.376;2022-07-10T10:46:34;24.20;87.50
39189;DHT22;24915;50.858;4.376;2022-07-10T10:49:07;24.10;87.50
39189;DHT22;24915;50.858;4.376;2022-07-10T10:52:03;24.10;88.20
39189;DHT22;24915;50.858;4.376;2022-07-10T10:57:22;24.40;88.00
39189;DHT22;24915;50.858;4.376;2022-07-10T11:02:41;24.80;86.70
39189;DHT22;24915;50.858;4.376;2022-07-10T11:07:58;25.60;85.60
39189;DHT22;24915;50.858;4.376;2022-07-10T11:10:41;25.90;84.30
39189;DHT22;24915;50.858;4.376;2022-07-10T11:13:12;26.10;83.30
39189;DHT22;24915;50.858;4.376;2022-07-10T11:15:44;26.20;83.10
39189;DHT22;24915;50.858;4.376;2022-07-10T11:18:16;26.10;82.70
39189;DHT22;24915;50.858;4.376;2022-07-10T11:20:49;26.10;83.30
39189;DHT22;24915;50.858;4.376;2022-07-10T11:25:54;26.30;83.30
39189;DHT22;24915;50.858;4.376;2022-07-10T11:31:00;26.40;82.20
39189;DHT22;24915;50.858;4.376;2022-07-10T11:33:26;26.40;82.20
39189;DHT22;24915;50.858;4.376;2022-07-10T11:35:53;26.40;81.90
39189;DHT22;24915;50.858;4.376;2022-07-10T11:38:23;26.30;81.90
39189;DHT22;24915;50.858;4.376;2022-07-10T11:40:49;26.30;82.70
39189;DHT22;24915;50.858;4.376;2022-07-10T11:43:15;26.40;81.80
39189;DHT22;24915;50.858;4.376;2022-07-10T11:45:43;26.40;81.20
39189;DHT22;24915;50.858;4.376;2022-07-10T11:48:22;26.50;81.30
39189;DHT22;24915;50.858;4.376;2022-07-10T11:50:49;26.70;81.20
39189;DHT22;24915;50.858;4.376;2022-07-10T11:53:25;26.80;80.80
39189;DHT22;24915;50.858;4.376;2022-07-10T11:55:51;26.90;81.50
39189;DHT22;24915;50.858;4.376;2022-07-10T11:58:18;26.90;80.10
39189;DHT22;24915;50.858;4.376;2022-07-10T12:01:01;26.90;79.60
39189;DHT22;24915;50.858;4.376;2022-07-10T12:03:27;27.00;80.60
39189;DHT22;24915;50.858;4.376;2022-07-10T12:05:53;27.40;80.40
39189;DHT22;24915;50.858;4.376;2022-07-10T12:08:19;27.80;79.50
39189;DHT22;24915;50.858;4.376;2022-07-10T12:10:45;27.90;78.00
39189;DHT22;24915;50.858;4.376;2022-07-10T12:13:13;28.10;77.50
39189;DHT22;24915;50.858;4.376;2022-07-10T12:15:44;28.00;76.90
39189;DHT22;24915;50.858;4.376;2022-07-10T12:18:17;28.30;76.90
39189;DHT22;24915;50.858;4.376;2022-07-10T12:20:43;28.50;76.80
39189;DHT22;24915;50.858;4.376;2022-07-10T12:23:16;28.80;77.10
39189;DHT22;24915;50.858;4.376;2022-07-10T12:25:46;28.90;75.20
39189;DHT22;24915;50.858;4.376;2022-07-10T12:28:15;28.70;74.90
39189;DHT22;24915;50.858;4.376;2022-07-10T12:30:45;28.60;74.60
39189;DHT22;24915;50.858;4.376;2022-07-10T12:33:18;28.40;74.80
39189;DHT22;24915;50.858;4.376;2022-07-10T12:35:56;28.20;75.30
39189;DHT22;24915;50.858;4.376;2022-07-10T12:38:27;28.20;76.00
39189;DHT22;24915;50.858;4.376;2022-07-10T12:41:25;28.30;75.80
39189;DHT22;24915;50.858;4.376;2022-07-10T12:43:52;28.40;75.40
39189;DHT22;24915;50.858;4.376;2022-07-10T12:46:22;28.40;75.10
39189;DHT22;24915;50.858;4.376;2022-07-10T12:51:32;28.40;74.70
39189;DHT22;24915;50.858;4.376;2022-07-10T12:53:58;28.30;74.60
39189;DHT22;24915;50.858;4.376;2022-07-10T12:56:36;28.10;74.50
39189;DHT22;24915;50.858;4.376;2022-07-10T12:59:13;28.00;75.30
39189;DHT22;24915;50.858;4.376;2022-07-10T13:01:43;27.80;76.00
39189;DHT22;24915;50.858;4.376;2022-07-10T13:04:10;28.00;76.90
39189;DHT22;24915;50.858;4.376;2022-07-10T13:06:37;28.50;75.90
39189;DHT22;24915;50.858;4.376;2022-07-10T13:09:22;28.80;74.40
39189;DHT22;24915;50.858;4.376;2022-07-10T13:11:49;28.70;73.60
39189;DHT22;24915;50.858;4.376;2022-07-10T13:14:15;28.60;73.50
39189;DHT22;24915;50.858;4.376;2022-07-10T13:16:41;28.50;73.40
39189;DHT22;24915;50.858;4.376;2022-07-10T13:19:06;28.60;74.00
39189;DHT22;24915;50.858;4.376;2022-07-10T13:21:32;28.70;72.70
39189;DHT22;24915;50.858;4.376;2022-07-10T13:23:57;28.80;73.50
39189;DHT22;24915;50.858;4.376;2022-07-10T13:26:23;28.90;73.30
39189;DHT22;24915;50.858;4.376;2022-07-10T13:28:49;28.70;73.00
39189;DHT22;24915;50.858;4.376;2022-07-10T13:31:14;28.40;73.60
39189;DHT22;24915;50.858;4.376;2022-07-10T13:33:40;28.20;73.10
39189;DHT22;24915;50.858;4.376;2022-07-10T13:36:06;28.00;74.10
39189;DHT22;24915;50.858;4.376;2022-07-10T13:38:32;28.00;75.40
39189;DHT22;24915;50.858;4.376;2022-07-10T13:40:59;28.80;75.90
39189;DHT22;24915;50.858;4.376;2022-07-10T13:43:24;29.50;72.60
39189;DHT22;24915;50.858;4.376;2022-07-10T13:45:58;29.80;71.40
39189;DHT22;24915;50.858;4.376;2022-07-10T13:48:24;29.70;69.70
39189;DHT22;24915;50.858;4.376;2022-07-10T13:50:51;29.50;69.70
39189;DHT22;24915;50.858;4.376;2022-07-10T13:53:17;29.40;70.80
39189;DHT22;24915;50.858;4.376;2022-07-10T13:55:43;29.40;71.50
39189;DHT22;24915;50.858;4.376;2022-07-10T13:58:09;29.70;69.60
39189;DHT22;24915;50.858;4.376;2022-07-10T14:00:36;29.90;70.60
39189;DHT22;24915;50.858;4.376;2022-07-10T14:03:02;30.00;69.50
39189;DHT22;24915;50.858;4.376;2022-07-10T14:05:28;29.90;69.30
39189;DHT22;24915;50.858;4.376;2022-07-10T14:07:54;29.70;70.40
39189;DHT22;24915;50.858;4.376;2022-07-10T14:10:19;29.70;70.50
39189;DHT22;24915;50.858;4.376;2022-07-10T14:12:45;30.10;70.80
39189;DHT22;24915;50.858;4.376;2022-07-10T14:15:11;30.70;70.50
39189;DHT22;24915;50.858;4.376;2022-07-10T14:17:36;31.30;69.90
39189;DHT22;24915;50.858;4.376;2022-07-10T14:20:02;31.40;68.20
39189;DHT22;24915;50.858;4.376;2022-07-10T14:22:28;31.30;66.80
39189;DHT22;24915;50.858;4.376;2022-07-10T14:24:56;30.90;67.40
39189;DHT22;24915;50.858;4.376;2022-07-10T14:27:22;30.90;68.60
39189;DHT22;24915;50.858;4.376;2022-07-10T14:29:51;30.80;66.80
39189;DHT22;24915;50.858;4.376;2022-07-10T14:32:16;30.70;67.30
39189;DHT22;24915;50.858;4.376;2022-07-10T14:34:42;30.50;66.90
39189;DHT22;24915;50.858;4.376;2022-07-10T14:37:07;30.40;67.00
39189;DHT22;24915;50.858;4.376;2022-07-10T14:39:33;30.30;68.40
39189;DHT22;24915;50.858;4.376;2022-07-10T14:41:59;30.30;68.30
39189;DHT22;24915;50.858;4.376;2022-07-10T14:44:25;30.50;68.60
39189;DHT22;24915;50.858;4.376;2022-07-10T14:46:50;30.50;67.60
39189;DHT22;24915;50.858;4.376;2022-07-10T14:49:16;30.30;67.10
39189;DHT22;24915;50.858;4.376;2022-07-10T14:51:42;30.10;67.60
39189;DHT22;24915;50.858;4.376;2022-07-10T14:54:07;29.80;68.00
39189;DHT22;24915;50.858;4.376;2022-07-10T14:56:34;29.60;68.20
39189;DHT22;24915;50.858;4.376;2022-07-10T14:59:00;29.40;69.70
39189;DHT22;24915;50.858;4.376;2022-07-10T15:01:26;29.30;70.20
39189;DHT22;24915;50.858;4.376;2022-07-10T15:03:51;29.30;69.60
39189;DHT22;24915;50.858;4.376;2022-07-10T15:06:18;29.10;69.70
39189;DHT22;24915;50.858;4.376;2022-07-10T15:08:44;29.10;70.60
39189;DHT22;24915;50.858;4.376;2022-07-10T15:11:09;29.30;70.30
39189;DHT22;24915;50.858;4.376;2022-07-10T15:13:35;29.40;70.10
39189;DHT22;24915;50.858;4.376;2022-07-10T15:16:01;29.20;69.20
39189;DHT22;24915;50.858;4.376;2022-07-10T15:18:27;28.90;70.10
39189;DHT22;24915;50.858;4.376;2022-07-10T15:20:52;28.90;71.30
39189;DHT22;24915;50.858;4.376;2022-07-10T15:23:18;29.20;71.00
39189;DHT22;24915;50.858;4.376;2022-07-10T15:25:44;29.40;69.60
39189;DHT22;24915;50.858;4.376;2022-07-10T15:28:10;29.60;68.10
39189;DHT22;24915;50.858;4.376;2022-07-10T15:30:38;29.50;68.20
39189;DHT22;24915;50.858;4.376;2022-07-10T15:33:04;29.40;69.10
39189;DHT22;24915;50.858;4.376;2022-07-10T15:35:30;29.40;69.20
39189;DHT22;24915;50.858;4.376;2022-07-10T15:37:56;29.50;68.50
39189;DHT22;24915;50.858;4.376;2022-07-10T15:40:25;29.40;68.80
39189;DHT22;24915;50.858;4.376;2022-07-10T15:42:50;29.40;68.70
39189;DHT22;24915;50.858;4.376;2022-07-10T15:45:16;29.20;68.40
39189;DHT22;24915;50.858;4.376;2022-07-10T15:47:42;29.10;69.00
39189;DHT22;24915;50.858;4.376;2022-07-10T15:50:08;28.80;69.70
39189;DHT22;24915;50.858;4.376;2022-07-10T15:52:33;28.70;70.50
39189;DHT22;24915;50.858;4.376;2022-07-10T15:54:59;28.70;70.10
39189;DHT22;24915;50.858;4.376;2022-07-10T15:57:24;28.60;70.40
39189;DHT22;24915;50.858;4.376;2022-07-10T15:59:50;28.40;70.60
39189;DHT22;24915;50.858;4.376;2022-07-10T16:02:16;28.20;71.80
39189;DHT22;24915;50.858;4.376;2022-07-10T16:04:42;28.20;71.40